Stations météo

Publicité
Salsburgh, Grande-Bretagne (99024): Température de l'air & dewpoint: 13.04.2019 01:00:00 - 19.04.2019 01:00:00 (BST)Salsburgh, Grande-Bretagne (99024): Vitesse du vent & gusts: 13.04.2019 01:00:00 - 19.04.2019 01:00:00 (BST)Salsburgh, Grande-Bretagne (99024): Direction du vent: 13.04.2019 01:00:00 - 19.04.2019 01:00:00 (BST)Salsburgh, Grande-Bretagne (99024): Quantités de précipitations: 13.04.2019 01:00:00 - 19.04.2019 01:00:00 (BST)
Date & Time tt [°C] td [°C] ff [km/h] ff [knt] fx [km/h] fx [knt] dd rr [mm]
19.04.2019 01:00:00 5,6 5,6 22 12 - - E 0,0
19.04.2019 00:00:00 5,8 5,8 28 15 - - E 0,0
18.04.2019 23:00:00 6,1 5,9 26 14 - - E 0,0
18.04.2019 22:00:00 6,8 6,2 28 15 - - E 0,0
18.04.2019 21:00:00 7,4 6,4 21 11 - - E 0,0
18.04.2019 20:00:00 9,1 7,0 24 13 - - E 0,0
18.04.2019 19:00:00 10,6 7,4 21 11 - - ENE 0,0
18.04.2019 18:00:00 11,8 8,0 21 11 - - ENE 0,0
18.04.2019 17:00:00 12,9 8,9 22 12 - - ENE 0,0
18.04.2019 16:00:00 12,5 8,1 22 12 - - ENE 0,0
18.04.2019 15:00:00 13,0 8,0 24 13 - - ENE 0,0
18.04.2019 14:00:00 13,6 8,8 22 12 - - ENE 0,0
18.04.2019 13:00:00 12,4 8,5 22 12 - - E 0,0
18.04.2019 12:00:00 9,5 7,0 26 14 - - ENE 0,0
18.04.2019 11:00:00 7,4 6,5 24 13 - - ENE 0,0
18.04.2019 10:00:00 5,8 5,8 28 15 - - ENE 0,0
18.04.2019 09:00:00 5,6 5,6 28 15 - - ENE 0,0
18.04.2019 08:00:00 5,5 5,5 28 15 - - ENE 0,0
18.04.2019 07:00:00 5,2 5,2 26 14 - - ENE 0,0
18.04.2019 06:00:00 5,0 5,0 26 14 - - ENE 0,0
18.04.2019 05:00:00 5,0 5,0 26 14 - - ENE 0,0
18.04.2019 04:00:00 4,9 4,9 24 13 - - ENE 0,0
18.04.2019 03:00:00 4,9 4,9 24 13 - - ENE 0,0
18.04.2019 02:00:00 4,7 4,7 24 13 - - ENE 0,0
18.04.2019 01:00:00 5,0 5,0 28 15 - - E 0,0
18.04.2019 00:00:00 5,1 5,1 26 14 - - ENE 0,0
17.04.2019 23:00:00 5,3 5,3 24 13 - - ENE 0,0
17.04.2019 22:00:00 5,4 5,4 24 13 - - ENE 0,0
17.04.2019 21:00:00 5,7 5,6 28 15 - - E 0,0
17.04.2019 20:00:00 6,8 5,4 24 13 - - ENE 0,0
17.04.2019 19:00:00 9,0 5,7 24 13 - - ENE 0,0
17.04.2019 18:00:00 10,5 6,2 26 14 - - ENE 0,0
17.04.2019 17:00:00 11,0 6,7 26 14 - - ENE 0,0
17.04.2019 16:00:00 11,7 7,2 24 13 - - ENE 0,0
17.04.2019 15:00:00 11,1 6,6 24 13 - - ENE 0,0
17.04.2019 14:00:00 11,4 7,1 22 12 - - ENE 0,0
17.04.2019 13:00:00 9,3 5,8 22 12 - - ENE 0,0
17.04.2019 12:00:00 8,9 5,2 22 12 - - E 0,0
17.04.2019 11:00:00 7,8 5,0 21 11 - - ENE 0,0
17.04.2019 10:00:00 5,6 4,4 21 11 - - ENE 0,0
17.04.2019 09:00:00 5,0 4,2 22 12 - - ENE 0,0
17.04.2019 08:00:00 4,4 3,9 22 12 - - ENE 0,0
17.04.2019 07:00:00 4,1 3,5 22 12 - - ENE 0,0
17.04.2019 06:00:00 4,0 3,4 22 12 - - ENE 0,0
17.04.2019 05:00:00 4,1 3,4 22 12 - - ENE 0,0
17.04.2019 04:00:00 4,2 3,5 21 11 - - E 0,0
17.04.2019 03:00:00 4,3 3,5 21 11 - - ENE 0,0
17.04.2019 02:00:00 4,4 3,5 24 13 - - ENE 0,0
17.04.2019 01:00:00 4,6 3,7 29 16 - - E 0,0
17.04.2019 00:00:00 4,9 4,0 24 13 - - E 0,2
16.04.2019 23:00:00 5,2 4,4 29 16 - - E 0,0
16.04.2019 22:00:00 5,3 5,0 21 11 - - ENE 0,0
16.04.2019 21:00:00 5,5 5,4 22 12 - - ENE 0,2
16.04.2019 20:00:00 5,8 5,7 24 13 - - ENE 0,4
16.04.2019 19:00:00 6,0 5,8 24 13 - - ENE 0,2
16.04.2019 18:00:00 6,2 6,0 24 13 - - NE 0,4
16.04.2019 17:00:00 6,8 6,2 22 12 - - NE 0,2
16.04.2019 16:00:00 7,5 5,8 26 14 - - NE 0,0
16.04.2019 15:00:00 9,0 4,9 26 14 - - ENE 0,0
16.04.2019 14:00:00 9,4 5,2 26 14 - - E 0,0
16.04.2019 13:00:00 8,4 5,1 24 13 - - ENE 0,0
16.04.2019 12:00:00 7,7 5,2 24 13 - - E 0,0
16.04.2019 11:00:00 7,6 5,2 28 15 - - E 0,0
16.04.2019 10:00:00 7,3 5,3 24 13 - - E 0,0
16.04.2019 09:00:00 6,5 5,0 22 12 - - E 0,0
16.04.2019 08:00:00 5,6 4,6 22 12 - - E 0,0
16.04.2019 07:00:00 4,6 4,1 16 9 - - E 0,0
16.04.2019 06:00:00 4,3 3,8 26 14 - - E 0,0
16.04.2019 05:00:00 4,7 3,7 22 12 - - E 0,0
16.04.2019 04:00:00 4,8 3,4 24 13 - - E 0,0
16.04.2019 03:00:00 4,7 2,8 22 12 - - E 0,0
16.04.2019 02:00:00 4,6 2,3 21 11 - - E 0,0
16.04.2019 01:00:00 4,9 2,2 21 11 48 26 ESE 0,0
16.04.2019 00:00:00 5,2 2,7 28 15 46 25 E 0,0
15.04.2019 23:00:00 5,1 2,5 28 15 - - E 0,0
15.04.2019 22:00:00 5,1 2,2 24 13 - - E 0,0
15.04.2019 21:00:00 5,7 2,0 24 13 52 28 E 0,0
15.04.2019 20:00:00 6,6 2,1 28 15 48 26 E 0,0
15.04.2019 19:00:00 7,4 2,0 31 17 - - E 0,0
15.04.2019 18:00:00 8,5 1,3 29 16 50 27 E 0,0
15.04.2019 17:00:00 8,7 0,5 37 20 55 30 E 0,0
15.04.2019 16:00:00 10,1 -0,7 37 20 52 28 ESE 0,0
15.04.2019 15:00:00 9,1 -1,1 35 19 54 29 E 0,0
15.04.2019 14:00:00 9,0 -0,8 29 16 55 30 ESE 0,0
15.04.2019 13:00:00 8,4 -0,4 34 18 55 30 ESE 0,0
15.04.2019 12:00:00 7,8 0,2 34 18 52 28 ESE 0,0
15.04.2019 11:00:00 6,7 0,2 29 16 55 30 ESE 0,0
15.04.2019 10:00:00 5,2 0,8 37 20 50 27 E 0,0
15.04.2019 09:00:00 4,0 0,7 31 17 48 26 ESE 0,0
15.04.2019 08:00:00 2,1 0,0 24 13 - - E 0,0
15.04.2019 07:00:00 1,0 -0,8 24 13 - - E 0,0
15.04.2019 06:00:00 0,4 -1,1 28 15 - - E 0,0
15.04.2019 05:00:00 0,7 -1,0 28 15 - - E 0,0
15.04.2019 04:00:00 1,1 -0,8 21 11 - - E 0,0
15.04.2019 03:00:00 1,3 -0,5 22 12 - - E 0,0
15.04.2019 02:00:00 1,2 -0,8 21 11 - - E 0,0
15.04.2019 01:00:00 1,5 -0,8 24 13 - - E 0,0
15.04.2019 00:00:00 2,0 -0,5 22 12 - - ESE 0,0
14.04.2019 23:00:00 2,1 -0,9 21 11 - - E 0,0
14.04.2019 22:00:00 2,2 -1,0 22 12 - - E 0,0
14.04.2019 21:00:00 3,3 -1,2 18 10 - - E 0,0
14.04.2019 20:00:00 4,6 -0,9 22 12 - - ESE 0,0
14.04.2019 19:00:00 5,5 -1,1 24 13 - - ESE 0,0
14.04.2019 18:00:00 5,9 0,0 21 11 - - ESE 0,0
14.04.2019 17:00:00 6,2 -0,9 26 14 - - ESE 0,0
14.04.2019 16:00:00 6,9 -1,2 22 12 - - ESE 0,0
14.04.2019 15:00:00 6,9 -1,4 22 12 - - SE 0,0
14.04.2019 14:00:00 6,4 -1,6 18 10 - - ESE 0,0
14.04.2019 13:00:00 7,0 -1,5 31 17 50 27 ESE 0,0
14.04.2019 12:00:00 6,6 -2,9 26 14 46 25 ESE 0,0
14.04.2019 11:00:00 6,2 -2,2 28 15 - - ESE 0,0
14.04.2019 10:00:00 4,8 -1,8 22 12 - - ESE 0,0
14.04.2019 09:00:00 3,2 -2,2 24 13 - - E 0,0
14.04.2019 08:00:00 1,6 -2,4 18 10 - - E 0,0
14.04.2019 07:00:00 0,2 -2,9 13 7 - - ENE 0,0
14.04.2019 06:00:00 -0,5 -3,1 21 11 - - E 0,0
14.04.2019 05:00:00 -0,6 -3,2 18 10 - - E 0,0
14.04.2019 04:00:00 0,1 -2,7 22 12 - - E 0,0
14.04.2019 03:00:00 0,7 -2,8 26 14 - - E 0,0
14.04.2019 02:00:00 0,3 -3,0 18 10 - - ESE 0,0
14.04.2019 01:00:00 0,8 -3,0 24 13 - - E 0,0
14.04.2019 00:00:00 0,8 -3,0 28 15 - - ESE 0,0
13.04.2019 23:00:00 0,9 -3,2 26 14 - - E 0,0
13.04.2019 22:00:00 1,5 -3,6 24 13 - - E 0,0
13.04.2019 21:00:00 2,5 -3,5 22 12 - - E 0,0
13.04.2019 20:00:00 4,0 -3,2 22 12 - - ESE 0,0
13.04.2019 19:00:00 5,7 -3,1 22 12 - - ESE 0,0
13.04.2019 18:00:00 7,3 -3,1 26 14 - - SE 0,0
13.04.2019 17:00:00 7,7 -3,7 24 13 46 25 ESE 0,0
13.04.2019 16:00:00 7,9 -3,0 28 15 50 27 ESE 0,0
13.04.2019 15:00:00 8,4 -1,3 26 14 - - ESE 0,0
13.04.2019 14:00:00 7,7 -1,6 22 12 52 28 ESE 0,0
13.04.2019 13:00:00 7,9 -2,0 22 12 48 26 ESE 0,0
13.04.2019 12:00:00 6,9 -2,7 24 13 - - ESE 0,0
13.04.2019 11:00:00 5,3 -3,0 28 15 - - ESE 0,0
13.04.2019 10:00:00 4,5 -1,5 28 15 - - ESE 0,0
13.04.2019 09:00:00 2,4 -1,5 15 8 - - E 0,0
13.04.2019 08:00:00 0,9 -1,2 13 7 - - E 0,0
13.04.2019 07:00:00 -1,0 -1,6 16 9 - - E 0,0
13.04.2019 06:00:00 -0,3 -1,3 15 8 - - E 0,0
13.04.2019 05:00:00 -0,8 -1,8 21 11 - - E 0,0
13.04.2019 04:00:00 0,0 -1,3 18 10 - - E 0,0
13.04.2019 03:00:00 -0,3 -1,8 16 9 - - E 0,0
13.04.2019 02:00:00 0,5 -1,3 15 8 - - ESE 0,0
13.04.2019 01:00:00 1,0 -1,7 21 11 - - ESE 0,0

tt = Température de l'air
td = dewpoint
ff = Vitesse du vent
fx = gusts
dd = Direction du vent
rr = Quantités de précipitations

stations d'obs. à proximité